Time;durP1;ratioP1;P1;durP2;ratioP2;P2;SDS_P1;SDS_P2;PMS_P1;PMS_P2;Temp;Humidity;BMP_temperature;BMP_pressure;BME280_temperature;BME280_humidity;BME280_pressure;Samples;Min_cycle;Max_cycle;Signal;HPM_P1;HPM_P2
2022/01/09 00:02:55;;;;;;;12.23;7.43;;;;;;;1.02;93.82;101298.28;10332591;28;20049;-78
2022/01/09 00:07:56;;;;;;;10.18;6.22;;;;;;;0.91;93.23;101281.38;10339173;28;20437;-77
2022/01/09 00:12:58;;;;;;;10.60;6.05;;;;;;;0.34;93.14;101178.16;10339563;28;20137;-77
2022/01/09 00:17:59;;;;;;;10.38;6.70;;;;;;;1.01;93.56;101280.88;10333474;28;20052;-78
2022/01/09 00:23:00;;;;;;;11.50;7.13;;;;;;;1.05;93.25;101285.88;10298834;28;20043;-77
2022/01/09 00:28:01;;;;;;;9.50;5.22;;;;;;;1.06;93.61;101271.00;10298125;28;20042;-77
2022/01/09 00:33:03;;;;;;;9.60;5.00;;;;;;;0.05;93.52;101098.69;10297551;28;20058;-77
2022/01/09 00:38:04;;;;;;;9.25;5.72;;;;;;;-0.55;92.93;100982.59;10297700;28;20053;-77
2022/01/09 00:43:09;;;;;;;11.32;7.03;;;;;;;0.53;93.05;101160.53;10298525;28;20561;-79
2022/01/09 00:48:10;;;;;;;10.80;6.57;;;;;;;0.16;93.05;101091.13;10298235;28;20138;-77
2022/01/09 00:53:11;;;;;;;10.52;6.78;;;;;;;0.89;93.80;101198.66;10297752;28;20039;-77
2022/01/09 00:58:11;;;;;;;9.25;6.60;;;;;;;1.16;93.11;101230.28;10297056;28;20047;-77
2022/01/09 01:03:12;;;;;;;12.55;7.22;;;;;;;1.09;93.39;101223.72;10295618;28;20045;-78
2022/01/09 01:08:13;;;;;;;15.38;6.68;;;;;;;0.93;93.43;101194.09;10296456;28;20388;-77
2022/01/09 01:13:14;;;;;;;7.05;4.05;;;;;;;1.18;92.88;101207.50;10295247;28;20051;-78
2022/01/09 01:18:15;;;;;;;8.95;5.38;;;;;;;0.04;92.30;101026.47;10296024;28;20129;-78
2022/01/09 01:23:16;;;;;;;11.13;6.00;;;;;;;0.92;92.64;101172.34;10296149;28;20043;-77
2022/01/09 01:28:17;;;;;;;8.90;4.60;;;;;;;0.88;91.83;101162.97;10297265;28;20042;-78
2022/01/09 01:33:19;;;;;;;8.25;5.30;;;;;;;0.85;92.30;101163.16;10296408;28;20062;-78
2022/01/09 01:38:19;;;;;;;4.28;2.55;;;;;;;0.63;91.32;101139.97;10295510;28;20498;-78
2022/01/09 01:43:20;;;;;;;6.57;2.75;;;;;;;0.91;91.97;101188.97;10295718;28;20085;-77
2022/01/09 01:48:21;;;;;;;5.80;3.17;;;;;;;0.81;91.40;101170.34;10295886;28;20043;-78
2022/01/09 01:53:23;;;;;;;8.60;3.08;;;;;;;0.43;91.83;101118.38;10295919;28;20495;-78
2022/01/09 01:58:26;;;;;;;4.43;2.33;;;;;;;0.70;91.68;101159.63;10295814;28;20465;-79
2022/01/09 02:03:26;;;;;;;4.85;2.85;;;;;;;0.83;91.28;101192.00;10294711;28;20043;-77
2022/01/09 02:08:27;;;;;;;5.45;2.70;;;;;;;0.65;91.65;101145.94;10294454;28;20039;-78
2022/01/09 02:13:28;;;;;;;4.95;2.75;;;;;;;0.80;91.91;101189.56;10294316;28;20054;-78
2022/01/09 02:18:29;;;;;;;6.03;2.70;;;;;;;-0.72;91.43;100930.47;10294537;28;20066;-78
2022/01/09 02:23:31;;;;;;;2.72;1.42;;;;;;;0.74;91.72;101192.50;10315153;28;20495;-78
2022/01/09 02:28:32;;;;;;;5.88;2.75;;;;;;;0.74;92.41;101184.66;10333207;28;20437;-79
2022/01/09 02:33:32;;;;;;;5.68;2.58;;;;;;;0.52;92.76;101142.31;10334162;28;20076;-78
2022/01/09 02:38:33;;;;;;;3.85;1.92;;;;;;;0.04;92.24;101060.44;10333308;28;20510;-78
2022/01/09 02:43:35;;;;;;;5.80;2.40;;;;;;;0.72;93.02;101173.47;10333738;28;20521;-78
2022/01/09 02:48:39;;;;;;;4.32;2.28;;;;;;;0.72;92.71;101170.84;10333655;28;20045;-78
2022/01/09 02:53:44;;;;;;;2.95;1.25;;;;;;;0.73;92.39;101169.91;10332887;28;20105;-79
2022/01/09 02:58:45;;;;;;;6.00;1.80;;;;;;;0.24;92.44;101115.09;10334123;28;20075;-78
2022/01/09 03:03:46;;;;;;;5.20;1.90;;;;;;;-0.28;92.21;101006.38;10332427;28;20556;-78
2022/01/09 03:08:47;;;;;;;4.25;1.75;;;;;;;0.67;93.02;101183.31;10333044;28;20030;-78
2022/01/09 03:13:47;;;;;;;5.22;1.65;;;;;;;0.09;92.86;101080.16;10332828;28;20501;-78
2022/01/09 03:18:48;;;;;;;3.58;1.63;;;;;;;0.62;94.17;101159.19;10333166;28;20474;-78
2022/01/09 03:23:49;;;;;;;2.97;1.17;;;;;;;-0.31;93.98;101000.50;10331744;28;20050;-78
2022/01/09 03:28:50;;;;;;;5.57;1.70;;;;;;;0.49;95.19;101130.25;10331718;28;21500;-77
2022/01/09 03:33:51;;;;;;;5.30;1.73;;;;;;;0.62;95.26;101152.19;10332001;28;20518;-78
2022/01/09 03:38:51;;;;;;;5.25;1.40;;;;;;;0.36;95.39;101119.63;10331815;28;20423;-77
2022/01/09 03:43:52;;;;;;;5.53;1.30;;;;;;;0.32;95.72;101125.94;10331864;28;20042;-77
2022/01/09 03:48:53;;;;;;;3.22;1.90;;;;;;;0.53;96.02;101146.63;10332395;28;20471;-78
2022/01/09 03:53:54;;;;;;;2.67;1.50;;;;;;;0.20;96.84;101103.09;10331733;28;20070;-78
2022/01/09 03:58:55;;;;;;;3.72;1.55;;;;;;;-0.19;96.50;101031.16;10330945;28;20042;-78
2022/01/09 04:03:56;;;;;;;2.70;1.20;;;;;;;0.31;97.27;101099.91;10332569;28;20505;-78
2022/01/09 04:08:58;;;;;;;4.50;1.42;;;;;;;0.26;96.89;101096.69;10331437;28;20089;-77
2022/01/09 04:14:00;;;;;;;8.10;1.88;;;;;;;0.54;97.75;101154.41;10331469;28;20046;-78
2022/01/09 04:19:01;;;;;;;4.72;1.27;;;;;;;0.58;97.82;101152.44;10331064;28;20034;-78
2022/01/09 04:24:02;;;;;;;3.90;1.70;;;;;;;0.54;97.42;101167.47;10331094;28;20038;-78
2022/01/09 04:29:04;;;;;;;6.15;1.30;;;;;;;0.53;97.43;101152.69;10329001;28;20062;-77
2022/01/09 04:34:05;;;;;;;4.40;1.50;;;;;;;0.39;97.96;101139.50;10328775;28;20190;-77
2022/01/09 04:39:06;;;;;;;2.90;1.50;;;;;;;-0.24;98.60;101039.25;10331427;28;20178;-77
2022/01/09 04:44:06;;;;;;;7.35;1.73;;;;;;;-0.02;98.77;101077.28;10330589;28;20065;-79
2022/01/09 04:49:07;;;;;;;2.90;1.40;;;;;;;0.51;98.74;101138.00;10330413;28;20042;-79
2022/01/09 04:54:08;;;;;;;7.30;1.52;;;;;;;0.12;99.85;101063.47;10336405;28;20046;-79
2022/01/09 04:59:09;;;;;;;4.80;1.48;;;;;;;-0.10;99.34;101025.44;10337196;28;20133;-79
2022/01/09 05:04:10;;;;;;;4.07;1.10;;;;;;;-0.63;99.86;100929.97;10337046;28;20039;-79
2022/01/09 05:09:11;;;;;;;3.42;1.35;;;;;;;-0.02;99.66;101049.38;10337549;28;20503;-79
2022/01/09 05:14:12;;;;;;;5.15;1.50;;;;;;;-0.06;100.00;101045.28;10336411;28;20045;-80
2022/01/09 05:19:18;;;;;;;5.25;2.17;;;;;;;-0.31;99.84;100992.66;10337150;28;20049;-80
2022/01/09 05:24:19;;;;;;;3.28;1.30;;;;;;;-0.31;100.00;100997.88;10336209;28;20084;-78
2022/01/09 05:29:21;;;;;;;7.15;1.80;;;;;;;-0.33;100.00;100986.66;10334538;28;20543;-79
2022/01/09 05:34:22;;;;;;;3.67;1.88;;;;;;;-1.03;100.00;100866.88;10326316;28;20057;-80
2022/01/09 05:39:23;;;;;;;3.03;1.23;;;;;;;0.33;100.00;101093.69;10287982;28;20534;-80
2022/01/09 05:44:24;;;;;;;6.53;2.25;;;;;;;-0.56;100.00;100940.94;10294320;28;20459;-73
2022/01/09 05:49:25;;;;;;;5.30;1.80;;;;;;;0.63;100.00;101127.75;10294971;28;20042;-74
2022/01/09 05:54:27;;;;;;;7.07;1.70;;;;;;;0.57;100.00;101099.31;10294435;28;20588;-74
2022/01/09 05:59:28;;;;;;;5.50;2.22;;;;;;;0.67;100.00;101115.34;10293737;28;20039;-71
2022/01/09 06:04:28;;;;;;;5.53;2.25;;;;;;;0.38;100.00;101054.19;10294204;28;20038;-78
2022/01/09 06:09:29;;;;;;;8.75;2.40;;;;;;;0.57;100.00;101080.16;10314741;28;20057;-81
2022/01/09 06:14:31;;;;;;;6.50;2.53;;;;;;;0.75;100.00;101118.38;10335916;28;20082;-77
2022/01/09 06:19:31;;;;;;;4.88;2.40;;;;;;;0.68;100.00;101083.84;10334308;28;20042;-73
2022/01/09 06:24:32;;;;;;;4.70;2.83;;;;;;;0.76;100.00;101070.34;10316870;28;20045;-84
2022/01/09 06:29:33;;;;;;;7.22;3.05;;;;;;;0.87;100.00;101067.97;10303220;28;20062;-71
2022/01/09 06:34:34;;;;;;;7.25;2.75;;;;;;;0.76;100.00;101044.19;10333800;28;20053;-74
2022/01/09 06:39:35;;;;;;;6.68;1.83;;;;;;;-0.13;100.00;100876.75;10315097;28;20047;-77
2022/01/09 06:44:36;;;;;;;9.88;3.53;;;;;;;0.77;100.00;101013.66;10322633;28;20045;-75
2022/01/09 06:49:37;;;;;;;6.88;2.70;;;;;;;0.11;100.00;100894.59;10333609;28;20097;-76
2022/01/09 06:54:38;;;;;;;5.40;3.08;;;;;;;1.01;100.00;101027.91;10332953;28;20046;-76
2022/01/09 06:59:38;;;;;;;13.55;4.80;;;;;;;0.77;100.00;100988.34;10328429;28;20414;-77
2022/01/09 07:04:41;;;;;;;6.53;3.45;;;;;;;1.13;100.00;101035.03;10353080;28;20116;-74
2022/01/09 07:09:41;;;;;;;12.65;4.85;;;;;;;0.88;100.00;100970.25;10372657;28;20083;-72
2022/01/09 07:14:42;;;;;;;7.65;4.28;;;;;;;0.34;100.00;100859.31;10373128;28;20049;-73
2022/01/09 07:19:43;;;;;;;10.23;5.05;;;;;;;0.63;100.00;100905.50;10336935;28;20414;-76
2022/01/09 07:24:44;;;;;;;10.25;4.93;;;;;;;0.95;100.00;100949.78;10331137;28;20494;-69
2022/01/09 07:29:45;;;;;;;10.57;5.15;;;;;;;1.10;100.00;100968.97;10331896;28;20074;-75
2022/01/09 07:34:46;;;;;;;15.52;6.10;;;;;;;1.42;100.00;101005.47;10331968;28;20112;-74
2022/01/09 07:39:47;;;;;;;10.45;6.03;;;;;;;1.42;100.00;100987.13;10331354;28;20100;-74
2022/01/09 07:44:48;;;;;;;13.77;6.13;;;;;;;0.80;100.00;100873.09;10330561;28;20513;-74
2022/01/09 07:49:48;;;;;;;9.77;5.22;;;;;;;1.30;100.00;100928.53;10331066;28;20038;-73
2022/01/09 07:54:49;;;;;;;17.77;7.20;;;;;;;1.50;100.00;100958.72;10331459;28;20034;-72
2022/01/09 07:59:50;;;;;;;11.23;4.90;;;;;;;0.20;100.00;100742.53;10329835;28;20482;-71
2022/01/09 08:04:51;;;;;;;14.75;6.47;;;;;;;1.75;100.00;100974.56;10328851;28;20038;-71
2022/01/09 08:09:51;;;;;;;11.93;6.80;;;;;;;0.87;100.00;100806.41;10330153;28;20038;-70
2022/01/09 08:14:52;;;;;;;12.57;6.32;;;;;;;1.25;100.00;100852.06;10310480;28;20125;-72
2022/01/09 08:19:53;;;;;;;17.90;6.20;;;;;;;0.95;100.00;100778.94;10289127;28;20051;-76
2022/01/09 08:24:54;;;;;;;12.82;6.15;;;;;;;1.75;100.00;100882.91;10296776;28;20038;-75
2022/01/09 08:29:55;;;;;;;13.43;6.50;;;;;;;2.10;100.00;100902.53;10322689;28;20062;-73
2022/01/09 08:34:56;;;;;;;12.80;6.15;;;;;;;1.97;100.00;100850.06;10337035;28;20054;-72
2022/01/09 09:59:49;;;;;;;16.27;7.30;;;;;;;3.77;100.00;100731.63;12400843;23;20023;-70
2022/01/09 10:05:06;;;;;;;7.32;4.18;;;;;;;3.27;100.00;100617.19;10161503;29;20078;-69
2022/01/09 10:10:10;;;;;;;15.07;6.85;;;;;;;3.85;99.33;100712.63;10173781;29;20501;-68
2022/01/09 10:15:18;;;;;;;17.25;8.15;;;;;;;3.74;98.61;100689.81;10157644;29;20056;-66
2022/01/09 10:20:22;;;;;;;12.27;5.72;;;;;;;3.85;98.55;100702.13;10156829;29;20044;-66
2022/01/09 10:25:26;;;;;;;;;;;;;;;4.10;98.40;100722.13;10174897;29;20040;-66
2022/01/09 10:30:33;;;;;;;14.90;7.37;;;;;;;3.95;98.42;100705.75;10175617;29;19919;-71
2022/01/09 10:35:37;;;;;;;9.65;3.72;;;;;;;4.07;97.92;100730.25;10175454;29;20358;-66
2022/01/09 10:40:39;;;;;;;14.73;5.67;;;;;;;4.06;98.28;100723.31;10174354;29;20079;-70
2022/01/09 11:06:38;;;;;;;11.13;6.60;;;;;;;3.35;98.29;100594.66;10379630;23;20048;-74
2022/01/09 11:11:43;;;;;;;15.40;7.35;;;;;;;3.34;98.00;100595.59;10160106;29;20064;-73
2022/01/09 11:16:51;;;;;;;12.00;6.20;;;;;;;3.60;97.49;100624.31;10153538;29;20079;-75
2022/01/09 11:22:02;;;;;;;11.20;6.13;;;;;;;4.02;97.69;100698.22;10142891;29;20592;-73
2022/01/09 11:27:17;;;;;;;14.70;6.25;;;;;;;4.00;97.67;100706.19;10161099;29;20047;-74
2022/01/09 11:32:54;;;;;;;8.95;4.35;;;;;;;3.38;98.15;100594.44;10156725;29;20048;-74
2022/01/09 11:38:28;;;;;;;20.88;7.45;;;;;;;3.94;97.93;100690.06;10133550;29;20103;-76
2022/01/09 11:43:30;;;;;;;11.20;6.80;;;;;;;3.57;97.78;100628.00;10152899;29;20567;-73
2022/01/09 11:48:52;;;;;;;13.02;5.88;;;;;;;4.06;98.06;100689.13;10166339;29;20052;-72
2022/01/09 11:54:15;;;;;;;17.10;6.28;;;;;;;4.02;97.90;100677.19;10158368;29;20531;-71
2022/01/09 11:59:23;;;;;;;11.63;5.88;;;;;;;4.02;97.67;100691.16;10172256;29;20392;-70
2022/01/09 12:04:33;;;;;;;11.38;5.07;;;;;;;4.00;97.91;100674.66;10198451;29;20056;-73
2022/01/09 12:09:46;;;;;;;12.38;6.95;;;;;;;3.42;97.39;100587.97;10219267;29;20571;-73
2022/01/09 12:20:07;;;;;;;11.38;5.50;;;;;;;3.92;98.04;100673.56;10161513;29;20041;-76
2022/01/09 12:25:24;;;;;;;15.18;6.88;;;;;;;3.96;98.39;100673.22;10161937;29;20445;-75
2022/01/09 12:30:33;;;;;;;5.95;3.08;;;;;;;3.94;98.26;100667.25;10179397;29;20050;-76
2022/01/09 12:35:35;;;;;;;9.25;5.03;;;;;;;3.56;98.22;100621.09;10179036;29;20040;-76
2022/01/09 12:40:36;;;;;;;6.28;3.70;;;;;;;2.49;97.84;100440.16;10179533;29;20052;-75
2022/01/09 12:45:43;;;;;;;8.70;4.47;;;;;;;3.32;98.58;100578.28;10177810;29;20403;-74
2022/01/09 12:50:44;;;;;;;5.07;2.65;;;;;;;3.43;98.63;100608.03;10176747;29;20044;-74
2022/01/09 12:56:12;;;;;;;6.60;3.00;;;;;;;3.53;98.84;100620.47;10171680;29;20115;-73
2022/01/09 13:01:13;;;;;;;15.23;6.18;;;;;;;3.72;99.10;100656.72;10171183;29;20051;-74
2022/01/09 13:06:17;;;;;;;15.38;5.15;;;;;;;3.41;99.12;100593.34;10174644;29;20063;-75
2022/01/09 13:11:20;;;;;;;13.18;5.05;;;;;;;3.70;99.13;100655.97;10172628;29;20099;-74
2022/01/09 13:16:28;;;;;;;14.73;5.63;;;;;;;3.64;100.00;100631.84;10170187;29;20040;-74
2022/01/09 13:21:37;;;;;;;10.25;5.13;;;;;;;3.62;100.00;100649.53;10172260;29;20055;-73
2022/01/09 13:26:42;;;;;;;11.68;4.72;;;;;;;3.26;100.00;100587.47;10184626;29;20514;-74
2022/01/09 13:31:49;;;;;;;7.80;4.20;;;;;;;3.61;100.00;100647.84;10176103;29;20058;-73
2022/01/09 13:36:51;;;;;;;15.85;5.57;;;;;;;3.26;100.00;100605.00;10176929;29;20048;-74
2022/01/09 13:42:00;;;;;;;8.60;3.92;;;;;;;3.59;100.00;100646.28;10169967;29;20044;-73
2022/01/09 13:47:10;;;;;;;9.68;4.70;;;;;;;3.56;100.00;100639.47;10152080;29;20047;-76
2022/01/09 13:52:13;;;;;;;11.32;5.00;;;;;;;3.47;100.00;100637.53;10138946;29;20413;-71
2022/01/09 13:57:21;;;;;;;19.60;6.97;;;;;;;3.53;100.00;100626.59;10138059;29;20047;-73
2022/01/09 14:02:24;;;;;;;10.20;4.50;;;;;;;3.41;100.00;100612.59;10137366;29;20045;-74
2022/01/09 14:07:30;;;;;;;39.00;18.75;;;;;;;3.48;100.00;100612.94;10135175;29;20564;-71
2022/01/09 14:12:35;;;;;;;32.40;14.15;;;;;;;3.01;100.00;100532.50;10160928;29;20131;-73
2022/01/09 14:17:36;;;;;;;33.38;11.32;;;;;;;3.51;100.00;100612.72;10163653;29;20078;-73
2022/01/09 14:22:48;;;;;;;21.50;9.57;;;;;;;2.70;100.00;100475.28;10172899;29;20048;-75
2022/01/09 14:27:49;;;;;;;12.23;5.28;;;;;;;3.41;100.00;100588.09;10173128;29;20055;-74
2022/01/09 14:33:06;;;;;;;17.67;6.10;;;;;;;3.54;100.00;100609.03;10188142;29;20047;-74
2022/01/09 14:38:12;;;;;;;7.63;3.90;;;;;;;3.57;100.00;100614.88;10174726;29;20087;-74
2022/01/09 14:43:13;;;;;;;9.18;4.10;;;;;;;3.08;100.00;100534.56;10169962;29;20042;-74
2022/01/09 14:48:14;;;;;;;5.93;3.28;;;;;;;3.19;100.00;100568.69;10171585;29;20066;-74
2022/01/09 14:53:16;;;;;;;16.90;7.15;;;;;;;3.29;100.00;100581.13;10172114;29;20043;-76
2022/01/09 14:58:18;;;;;;;13.57;6.68;;;;;;;3.00;100.00;100536.91;10172589;29;20134;-74
2022/01/09 15:03:20;;;;;;;11.10;5.18;;;;;;;3.37;100.00;100600.59;10166605;29;20056;-74
2022/01/09 15:08:22;;;;;;;13.93;6.00;;;;;;;3.35;100.00;100602.53;10168737;29;20412;-72
2022/01/09 15:13:24;;;;;;;18.13;6.22;;;;;;;2.44;100.00;100466.72;10165724;29;20482;-74
2022/01/09 15:18:24;;;;;;;7.88;3.67;;;;;;;3.23;100.00;100599.97;10169001;29;20416;-74
2022/01/09 15:23:26;;;;;;;17.70;6.85;;;;;;;2.45;100.00;100478.03;10172837;29;20058;-73
2022/01/09 15:28:26;;;;;;;8.82;4.15;;;;;;;3.35;100.00;100615.66;10173933;29;20054;-74
2022/01/09 15:33:27;;;;;;;14.20;5.20;;;;;;;2.83;100.00;100527.66;10172143;29;20046;-73
2022/01/09 15:38:28;;;;;;;11.55;4.57;;;;;;;2.33;100.00;100453.53;10172239;29;20067;-74
2022/01/09 15:43:29;;;;;;;15.25;5.35;;;;;;;3.15;100.00;100572.50;10166541;29;20142;-73
2022/01/09 15:48:30;;;;;;;12.63;4.10;;;;;;;3.16;100.00;100571.56;10173466;29;20405;-73
2022/01/09 15:53:31;;;;;;;11.55;3.67;;;;;;;3.36;100.00;100601.56;10172783;29;20148;-74
2022/01/09 15:58:31;;;;;;;9.63;4.60;;;;;;;3.23;100.00;100574.56;10167374;29;20122;-73
2022/01/09 16:03:33;;;;;;;13.95;5.95;;;;;;;3.06;100.00;100565.31;10169520;29;20103;-74
2022/01/09 16:08:35;;;;;;;12.70;4.90;;;;;;;3.12;100.00;100562.25;10170688;29;20076;-73
2022/01/09 16:13:37;;;;;;;13.02;5.45;;;;;;;2.92;100.00;100531.41;10166204;29;20062;-72
2022/01/09 16:18:38;;;;;;;8.55;4.65;;;;;;;2.69;100.00;100486.72;10168147;29;20104;-72
2022/01/09 16:23:39;;;;;;;12.15;5.63;;;;;;;3.09;100.00;100546.72;10163271;29;20055;-74
2022/01/09 16:28:40;;;;;;;12.25;6.05;;;;;;;2.64;100.00;100504.59;10168653;29;20036;-73
2022/01/09 16:33:41;;;;;;;11.52;5.25;;;;;;;2.27;100.00;100423.41;10169294;29;20051;-73
2022/01/09 16:38:42;;;;;;;7.80;4.40;;;;;;;3.22;100.00;100572.06;10169758;29;20127;-73
2022/01/09 16:43:44;;;;;;;12.20;5.20;;;;;;;2.92;100.00;100545.34;10168283;29;20486;-73
2022/01/09 16:48:45;;;;;;;10.90;5.25;;;;;;;1.85;100.00;100374.94;10165870;29;20056;-73
2022/01/09 16:53:46;;;;;;;12.45;4.82;;;;;;;2.38;100.00;100464.53;10176182;29;20040;-73
2022/01/09 16:58:47;;;;;;;11.98;5.40;;;;;;;2.31;100.00;100452.00;10177277;29;20048;-74
2022/01/09 17:03:49;;;;;;;14.55;5.93;;;;;;;1.92;100.00;100388.44;10174904;29;20083;-73
2022/01/09 17:08:50;;;;;;;11.02;5.22;;;;;;;2.64;100.00;100519.50;10177396;29;20138;-73
2022/01/09 17:13:52;;;;;;;11.20;3.63;;;;;;;2.90;100.00;100556.91;10175703;29;20087;-73
2022/01/09 17:18:52;;;;;;;7.95;3.22;;;;;;;2.75;100.00;100530.00;10173245;29;20444;-73
2022/01/09 17:23:54;;;;;;;12.23;6.30;;;;;;;2.67;100.00;100504.38;10175388;29;20051;-73
2022/01/09 17:28:55;;;;;;;17.15;4.85;;;;;;;2.97;100.00;100535.34;10175318;29;20127;-73
2022/01/09 17:33:55;;;;;;;14.20;5.97;;;;;;;3.11;100.00;100557.09;10175158;29;20044;-73
2022/01/09 17:38:56;;;;;;;15.40;6.43;;;;;;;2.79;100.00;100496.53;10176986;29;20048;-73
2022/01/09 17:43:57;;;;;;;9.68;4.88;;;;;;;3.01;100.00;100529.88;10172863;29;20044;-73
2022/01/09 17:48:59;;;;;;;11.13;4.82;;;;;;;3.04;100.00;100527.03;10171770;29;20134;-71
2022/01/09 17:54:00;;;;;;;8.05;3.53;;;;;;;3.03;100.00;100525.34;10175068;29;20051;-70
2022/01/09 17:59:01;;;;;;;12.57;6.25;;;;;;;3.07;100.00;100540.75;10175703;29;20520;-69
2022/01/09 18:04:02;;;;;;;13.95;6.03;;;;;;;2.76;100.00;100497.59;10169093;29;20139;-73
2022/01/09 18:09:03;;;;;;;6.78;3.60;;;;;;;2.17;100.00;100379.63;10169918;29;20051;-74
2022/01/09 18:14:04;;;;;;;9.55;4.70;;;;;;;2.95;100.00;100503.13;10169643;29;20047;-71
2022/01/09 18:19:05;;;;;;;16.65;7.45;;;;;;;2.86;100.00;100510.84;10171218;29;20047;-72
2022/01/09 18:24:11;;;;;;;10.80;3.95;;;;;;;2.68;100.00;100463.22;10183428;29;20047;-74
2022/01/09 18:29:13;;;;;;;14.02;7.18;;;;;;;2.91;100.00;100490.38;10175219;29;20055;-75
2022/01/09 18:34:13;;;;;;;8.90;4.78;;;;;;;3.06;100.00;100493.63;10174647;29;20444;-74
2022/01/09 18:39:16;;;;;;;11.63;6.35;;;;;;;2.99;100.00;100493.22;10174514;29;20044;-73
2022/01/09 18:44:17;;;;;;;11.00;6.20;;;;;;;3.07;100.00;100497.91;10174727;29;20519;-74
2022/01/09 18:49:18;;;;;;;10.88;5.65;;;;;;;2.43;100.00;100378.53;10174788;29;20123;-78
2022/01/09 18:54:19;;;;;;;10.13;6.05;;;;;;;2.64;100.00;100404.09;10170257;29;20423;-74
2022/01/09 18:59:20;;;;;;;8.05;4.68;;;;;;;2.95;100.00;100440.16;10168742;29;20531;-73
2022/01/09 19:04:21;;;;;;;9.40;5.50;;;;;;;3.03;100.00;100454.50;10178866;29;20063;-74
2022/01/09 19:09:22;;;;;;;8.60;4.18;;;;;;;2.53;100.00;100368.16;10172170;29;20055;-74
2022/01/09 19:14:23;;;;;;;6.70;3.58;;;;;;;3.13;100.00;100463.31;10173009;29;20052;-74
2022/01/09 19:19:24;;;;;;;9.38;5.50;;;;;;;3.11;100.00;100466.09;10159821;29;20098;-74
2022/01/09 19:24:25;;;;;;;7.30;5.18;;;;;;;2.73;100.00;100395.53;10171759;29;20408;-74
2022/01/09 19:29:28;;;;;;;9.27;5.10;;;;;;;3.15;100.00;100459.63;10177134;29;20517;-73
2022/01/09 19:34:29;;;;;;;11.07;5.40;;;;;;;2.70;100.00;100388.72;10172640;29;20076;-73
2022/01/09 19:39:30;;;;;;;7.68;4.85;;;;;;;3.10;100.00;100453.06;10189944;29;20489;-74
2022/01/09 19:44:31;;;;;;;10.57;4.95;;;;;;;2.27;100.00;100305.44;10213204;29;20058;-73
2022/01/09 19:49:32;;;;;;;8.25;5.13;;;;;;;2.70;100.00;100372.97;10212651;29;20496;-73
2022/01/09 19:54:33;;;;;;;10.20;5.70;;;;;;;2.54;100.00;100348.84;10212119;29;20619;-74
2022/01/09 19:59:36;;;;;;;7.97;4.28;;;;;;;2.73;100.00;100370.13;10211995;29;20134;-73
2022/01/09 20:04:38;;;;;;;10.10;5.43;;;;;;;3.04;100.00;100428.13;10211935;29;20067;-73
2022/01/09 20:09:39;;;;;;;9.30;4.68;;;;;;;2.74;100.00;100369.16;10200366;29;20531;-73
2022/01/09 20:14:40;;;;;;;10.32;4.80;;;;;;;2.89;100.00;100395.19;10141897;29;20056;-73
2022/01/09 20:19:41;;;;;;;6.60;3.15;;;;;;;2.93;100.00;100383.50;10133427;29;20072;-73
2022/01/09 20:24:42;;;;;;;9.27;5.35;;;;;;;2.67;100.00;100331.25;10139576;29;20049;-73
2022/01/09 20:29:43;;;;;;;12.07;4.78;;;;;;;2.66;100.00;100336.59;10141294;29;20047;-74
2022/01/09 20:34:44;;;;;;;11.10;5.30;;;;;;;2.96;100.00;100372.75;10140208;29;20075;-73
2022/01/09 20:39:45;;;;;;;9.50;4.78;;;;;;;2.94;100.00;100367.63;10139961;29;20072;-73
2022/01/09 20:44:46;;;;;;;9.15;5.38;;;;;;;2.78;100.00;100355.81;10140260;29;20572;-73
2022/01/09 20:49:48;;;;;;;11.90;6.07;;;;;;;3.08;100.00;100386.72;10140678;29;20040;-73
2022/01/09 20:54:48;;;;;;;8.80;4.90;;;;;;;3.01;100.00;100369.78;10153948;29;20063;-73
2022/01/09 20:59:49;;;;;;;10.52;6.05;;;;;;;2.95;100.00;100353.56;10139962;29;20041;-73
2022/01/09 21:04:50;;;;;;;10.05;4.97;;;;;;;2.95;100.00;100350.09;10139067;29;20539;-73
2022/01/09 21:09:51;;;;;;;15.85;6.70;;;;;;;2.49;100.00;100267.09;10139997;29;20040;-73
2022/01/09 21:14:52;;;;;;;8.48;3.88;;;;;;;2.70;100.00;100281.19;10139654;29;20066;-73
2022/01/09 21:19:53;;;;;;;11.68;6.63;;;;;;;3.13;100.00;100359.16;10138611;29;20441;-73
2022/01/09 21:24:54;;;;;;;11.15;6.55;;;;;;;3.04;100.00;100331.00;10138389;29;20131;-73
2022/01/09 21:29:55;;;;;;;15.77;5.97;;;;;;;3.18;100.00;100337.81;10139019;29;20454;-74
2022/01/09 21:34:56;;;;;;;9.25;4.63;;;;;;;2.71;100.00;100250.53;10137319;29;20513;-74
2022/01/09 21:39:57;;;;;;;14.07;6.40;;;;;;;2.68;100.00;100243.72;10137908;29;20055;-74
2022/01/09 21:44:58;;;;;;;10.75;5.35;;;;;;;1.70;100.00;100078.34;10138397;29;20082;-73
2022/01/09 21:49:59;;;;;;;11.82;6.03;;;;;;;2.95;100.00;100292.38;10136460;29;20493;-74
2022/01/09 21:55:07;;;;;;;10.20;6.00;;;;;;;3.11;100.00;100321.72;10138219;29;20048;-73
2022/01/09 22:00:10;;;;;;;13.32;5.95;;;;;;;2.58;100.00;100227.06;10137001;29;20051;-73
2022/01/09 22:05:11;;;;;;;14.13;6.10;;;;;;;2.59;100.00;100214.78;10137715;29;20060;-73
2022/01/09 22:10:12;;;;;;;12.27;6.38;;;;;;;3.15;100.00;100322.31;10136780;29;20393;-74
2022/01/09 22:15:13;;;;;;;10.68;5.45;;;;;;;1.96;100.00;100115.63;10136972;29;20177;-74
2022/01/09 22:20:14;;;;;;;17.35;6.65;;;;;;;3.34;100.00;100340.06;10135591;29;20576;-74
2022/01/09 22:25:14;;;;;;;13.90;6.30;;;;;;;3.36;100.00;100336.38;10136778;29;20139;-74
2022/01/09 22:30:15;;;;;;;13.32;6.63;;;;;;;2.63;100.00;100217.06;10136028;29;20156;-73
2022/01/09 22:35:16;;;;;;;19.13;7.28;;;;;;;2.83;100.00;100267.94;10135695;29;20056;-74
2022/01/09 22:40:18;;;;;;;14.60;6.45;;;;;;;3.23;100.00;100292.81;10135900;29;20051;-74
2022/01/09 22:45:20;;;;;;;11.93;6.30;;;;;;;3.23;100.00;100287.56;10135919;29;20131;-73
2022/01/09 22:50:22;;;;;;;11.40;6.10;;;;;;;3.15;100.00;100267.19;10136290;29;20036;-74
2022/01/09 22:55:22;;;;;;;16.48;7.20;;;;;;;3.11;100.00;100287.59;10135563;29;20060;-74
2022/01/09 23:00:35;;;;;;;15.98;6.93;;;;;;;3.42;100.00;100303.53;10135745;29;20078;-73
2022/01/09 23:05:36;;;;;;;18.70;7.60;;;;;;;2.23;100.00;100104.78;10134985;29;20061;-73
2022/01/09 23:10:38;;;;;;;16.17;8.18;;;;;;;2.55;100.00;100153.03;10134527;29;20048;-73
2022/01/09 23:15:39;;;;;;;14.88;8.27;;;;;;;2.02;100.00;100059.31;10134945;29;20051;-73
2022/01/09 23:20:40;;;;;;;16.13;8.30;;;;;;;3.40;100.00;100263.41;10134734;29;20041;-73
2022/01/09 23:25:41;;;;;;;13.60;7.82;;;;;;;2.58;100.00;100113.47;10134024;29;20111;-74
2022/01/09 23:30:42;;;;;;;17.13;8.68;;;;;;;2.98;100.00;100202.91;10148567;29;20099;-74
2022/01/09 23:35:43;;;;;;;22.23;9.63;;;;;;;3.43;100.00;100276.31;10134112;29;20517;-74
2022/01/09 23:40:44;;;;;;;15.98;8.50;;;;;;;3.17;100.00;100234.63;10132805;29;20047;-73
2022/01/09 23:45:47;;;;;;;17.40;9.50;;;;;;;3.48;100.00;100284.66;10134079;29;20077;-74
2022/01/09 23:50:54;;;;;;;16.20;8.60;;;;;;;3.57;100.00;100304.91;10134740;29;20421;-74
2022/01/09 23:55:55;;;;;;;19.52;8.60;;;;;;;3.55;100.00;100280.56;10133309;29;20493;-74
